Time;durP1;ratioP1;P1;durP2;ratioP2;P2;SDS_P1;SDS_P2;PMS_P1;PMS_P2;Temp;Humidity;BMP_temperature;BMP_pressure;BME280_temperature;BME280_humidity;BME280_pressure;Samples;Min_cycle;Max_cycle;Signal;HPM_P1;HPM_P2
2023/04/16 00:02:10;;;;;;;;;;;;;;;14.65;64.92;100658.96;107804;1291;21967;-64
2023/04/16 00:04:35;;;;;;;;;;;;;;;14.61;64.99;100652.17;107805;1291;23730;-64
2023/04/16 00:07:01;;;;;;;;;;;;;;;14.56;65.15;100651.93;107778;1291;21969;-65
2023/04/16 00:09:26;;;;;;;;;;;;;;;14.54;65.20;100651.48;107781;1291;21971;-65
2023/04/16 00:11:52;;;;;;;;;;;;;;;14.50;65.42;100652.09;107861;1291;23090;-66
2023/04/16 00:14:17;;;;;;;;;;;;;;;14.47;65.44;100651.81;107779;1291;21975;-66
2023/04/16 00:16:43;;;;;;;;;;;;;;;14.46;65.40;100654.66;107874;1291;21987;-64
2023/04/16 00:19:08;;;;;;;;;;;;;;;14.46;65.33;100658.02;107666;1291;21979;-63
2023/04/16 00:21:34;;;;;;;;;;;;;;;14.46;65.26;100658.38;107665;1291;21976;-63
2023/04/16 00:24:00;;;;;;;;;;;;;;;14.47;65.33;100660.13;107684;1291;21983;-65
2023/04/16 00:26:26;;;;;;;;;;;;;;;14.48;65.35;100662.75;107637;1291;21973;-64
2023/04/16 00:28:51;;;;;;;;;;;;;;;14.48;65.27;100665.91;107648;1291;21973;-65
2023/04/16 00:31:17;;;;;;;;;;;;;;;14.47;65.20;100665.05;107643;1291;21965;-64
2023/04/16 00:33:42;;;;;;;;;;;;;;;14.47;65.16;100666.63;107789;1291;22096;-63
2023/04/16 00:36:08;;;;;;;;;;;;;;;14.48;65.15;100666.10;107787;1291;21973;-65
2023/04/16 00:38:34;;;;;;;;;;;;;;;14.50;65.02;100664.29;107708;1291;21991;-64
2023/04/16 00:40:59;;;;;;;;;;;;;;;14.51;64.85;100664.42;107813;1291;21971;-65
2023/04/16 00:43:25;;;;;;;;;;;;;;;14.53;64.67;100665.09;107644;1291;21992;-64
2023/04/16 00:45:55;;;;;;;;;;;;;;;14.54;64.58;100664.52;107847;1291;21998;-63
2023/04/16 00:48:20;;;;;;;;;;;;;;;14.55;64.36;100666.45;107637;1291;21991;-63
2023/04/16 00:50:46;;;;;;;;;;;;;;;14.54;64.06;100669.48;107640;1291;21978;-66
2023/04/16 00:53:12;;;;;;;;;;;;;;;14.51;63.92;100671.51;107862;1291;22042;-66
2023/04/16 00:55:38;;;;;;;;;;;;;;;14.46;64.00;100668.43;107753;1285;21977;-62
2023/04/16 00:58:03;;;;;;;;;;;;;;;14.41;63.86;100669.23;107684;1291;21981;-62
2023/04/16 01:00:29;;;;;;;;;;;;;;;14.37;63.80;100670.04;107637;1290;21967;-62
2023/04/16 01:02:55;;;;;;;;;;;;;;;14.34;63.77;100671.55;107666;1291;21975;-62
2023/04/16 01:05:21;;;;;;;;;;;;;;;14.31;63.71;100674.09;107661;1291;21973;-62
2023/04/16 01:07:46;;;;;;;;;;;;;;;14.24;63.47;100673.02;107593;1291;21981;-64
2023/04/16 01:10:12;;;;;;;;;;;;;;;14.19;63.66;100674.89;107720;1289;21968;-66
2023/04/16 01:12:38;;;;;;;;;;;;;;;14.14;63.58;100674.27;107682;1291;21975;-64
2023/04/16 01:15:04;;;;;;;;;;;;;;;14.10;63.48;100673.48;107724;1291;23060;-65
2023/04/16 01:17:30;;;;;;;;;;;;;;;14.06;63.38;100674.63;107860;1291;22009;-65
2023/04/16 01:19:59;;;;;;;;;;;;;;;14.02;63.43;100673.48;107796;1291;21978;-62
2023/04/16 01:22:26;;;;;;;;;;;;;;;13.97;63.53;100669.16;107667;1291;21992;-63
2023/04/16 01:24:54;;;;;;;;;;;;;;;13.95;63.58;100670.80;107660;1291;23757;-65
2023/04/16 01:27:20;;;;;;;;;;;;;;;13.94;63.63;100669.41;107624;1291;23137;-62
2023/04/16 01:29:45;;;;;;;;;;;;;;;13.92;63.59;100671.58;107622;1291;21976;-62
2023/04/16 01:32:11;;;;;;;;;;;;;;;13.91;63.45;100672.66;107653;1291;21994;-66
2023/04/16 01:34:37;;;;;;;;;;;;;;;13.88;63.18;100675.02;107900;1290;21973;-66
2023/04/16 01:37:02;;;;;;;;;;;;;;;13.87;63.33;100675.40;107968;1290;21984;-62
2023/04/16 01:39:31;;;;;;;;;;;;;;;13.85;63.03;100676.14;107908;1290;21975;-65
2023/04/16 01:41:57;;;;;;;;;;;;;;;13.78;62.72;100674.18;107855;1290;21973;-66
2023/04/16 01:44:26;;;;;;;;;;;;;;;13.71;62.66;100671.85;107928;1290;21970;-63
2023/04/16 01:46:52;;;;;;;;;;;;;;;13.66;62.94;100668.79;107896;1290;23434;-65
2023/04/16 01:49:18;;;;;;;;;;;;;;;13.65;63.01;100668.80;107877;1290;21974;-64
2023/04/16 01:51:43;;;;;;;;;;;;;;;13.68;62.94;100667.31;107859;1290;21976;-65
2023/04/16 01:54:09;;;;;;;;;;;;;;;13.63;63.19;100668.31;107950;1290;21983;-67
2023/04/16 01:56:35;;;;;;;;;;;;;;;13.61;63.46;100670.10;107891;1290;22005;-63
2023/04/16 01:59:00;;;;;;;;;;;;;;;13.61;63.35;100671.88;107890;1290;22034;-63
2023/04/16 02:01:26;;;;;;;;;;;;;;;13.58;63.61;100667.54;107883;1290;23618;-65
2023/04/16 02:03:52;;;;;;;;;;;;;;;13.54;63.58;100670.42;107797;1290;21967;-65
2023/04/16 02:06:17;;;;;;;;;;;;;;;13.50;63.62;100668.02;107875;1290;21968;-65
2023/04/16 02:08:43;;;;;;;;;;;;;;;13.47;63.42;100666.69;107887;1290;21960;-65
2023/04/16 02:11:09;;;;;;;;;;;;;;;13.39;63.41;100669.63;107930;1290;22436;-66
2023/04/16 02:13:37;;;;;;;;;;;;;;;13.35;63.79;100668.28;107947;1290;22011;-65
2023/04/16 02:16:03;;;;;;;;;;;;;;;13.33;64.30;100672.04;107855;1290;21990;-65
2023/04/16 02:18:29;;;;;;;;;;;;;;;13.34;64.29;100673.95;107889;1286;22015;-63
2023/04/16 02:20:56;;;;;;;;;;;;;;;13.34;64.36;100674.46;107838;1290;21969;-65
2023/04/16 02:23:22;;;;;;;;;;;;;;;13.38;64.18;100678.28;107841;1289;21970;-63
2023/04/16 02:25:48;;;;;;;;;;;;;;;13.35;64.01;100677.10;107972;1289;21988;-63
2023/04/16 02:28:14;;;;;;;;;;;;;;;13.30;64.14;100675.77;107919;1289;21972;-63
2023/04/16 02:30:49;;;;;;;;;;;;;;;13.27;64.30;100671.96;107883;1289;21973;-67
2023/04/16 02:33:15;;;;;;;;;;;;;;;13.24;64.26;100676.23;107923;1289;21970;-66
2023/04/16 02:35:41;;;;;;;;;;;;;;;13.24;64.22;100679.95;107839;1290;21970;-63
2023/04/16 02:38:07;;;;;;;;;;;;;;;13.24;64.31;100680.65;107834;1290;21977;-66
2023/04/16 02:40:33;;;;;;;;;;;;;;;13.27;64.47;100681.48;107837;1290;21984;-63
2023/04/16 02:42:59;;;;;;;;;;;;;;;13.29;64.51;100680.20;107870;1289;21973;-67
2023/04/16 02:45:24;;;;;;;;;;;;;;;13.33;64.63;100680.85;107822;1290;21970;-66
2023/04/16 02:47:50;;;;;;;;;;;;;;;13.41;64.46;100680.72;107829;1290;21988;-64
2023/04/16 02:50:16;;;;;;;;;;;;;;;13.48;64.47;100686.59;107811;1290;21970;-66
2023/04/16 02:52:41;;;;;;;;;;;;;;;13.50;64.45;100688.83;107836;1290;21993;-63
2023/04/16 02:55:07;;;;;;;;;;;;;;;13.55;63.97;100691.91;107829;1286;22011;-64
2023/04/16 02:57:33;;;;;;;;;;;;;;;13.57;63.84;100696.98;107891;1290;21975;-64
2023/04/16 02:59:59;;;;;;;;;;;;;;;13.60;63.72;100700.64;107934;1289;21973;-65
2023/04/16 03:02:32;;;;;;;;;;;;;;;13.61;63.62;100702.91;107827;1290;21972;-66
2023/04/16 03:04:58;;;;;;;;;;;;;;;13.61;63.68;100703.44;107831;1290;21980;-63
2023/04/16 03:07:23;;;;;;;;;;;;;;;13.60;63.67;100704.35;107877;1290;21976;-65
2023/04/16 03:09:49;;;;;;;;;;;;;;;13.54;63.58;100705.16;107854;1290;21968;-63
2023/04/16 03:12:14;;;;;;;;;;;;;;;13.50;63.72;100705.74;107828;1290;21971;-66
2023/04/16 03:14:40;;;;;;;;;;;;;;;13.48;64.06;100707.55;107976;1290;22084;-65
2023/04/16 03:17:06;;;;;;;;;;;;;;;13.48;64.27;100707.20;107849;1290;21983;-63
2023/04/16 03:19:31;;;;;;;;;;;;;;;13.50;64.31;100707.33;107799;1290;22044;-63
2023/04/16 03:21:57;;;;;;;;;;;;;;;13.49;64.24;100709.66;107871;1290;21977;-63
2023/04/16 03:24:22;;;;;;;;;;;;;;;13.46;64.44;100712.36;107858;1290;21982;-64
2023/04/16 03:26:49;;;;;;;;;;;;;;;13.47;64.70;100709.88;107933;1290;21985;-64
2023/04/16 03:29:15;;;;;;;;;;;;;;;13.47;64.71;100712.68;108004;1290;24430;-65
2023/04/16 03:31:40;;;;;;;;;;;;;;;13.48;64.71;100715.15;107883;1290;21970;-63
2023/04/16 03:34:06;;;;;;;;;;;;;;;13.48;65.06;100712.66;107849;1290;21970;-63
2023/04/16 03:36:32;;;;;;;;;;;;;;;13.54;65.76;100715.02;107824;1290;22018;-65
2023/04/16 03:38:57;;;;;;;;;;;;;;;13.67;66.30;100719.55;107920;1290;21987;-65
2023/04/16 03:41:23;;;;;;;;;;;;;;;13.83;66.52;100722.58;107884;1290;21976;-66
2023/04/16 03:43:48;;;;;;;;;;;;;;;13.97;66.69;100726.52;107855;1290;23079;-65
2023/04/16 03:46:17;;;;;;;;;;;;;;;14.10;66.81;100728.89;107868;1290;21980;-65
2023/04/16 03:48:43;;;;;;;;;;;;;;;14.22;67.12;100731.81;107872;1290;21983;-65
2023/04/16 03:51:08;;;;;;;;;;;;;;;14.36;67.44;100735.39;107858;1290;21970;-65
2023/04/16 03:53:34;;;;;;;;;;;;;;;14.52;67.73;100736.09;107859;1290;21981;-65
2023/04/16 03:56:00;;;;;;;;;;;;;;;14.68;68.40;100736.27;107871;1290;21971;-66
2023/04/16 03:58:25;;;;;;;;;;;;;;;14.85;68.77;100735.17;107857;1290;22441;-65
2023/04/16 04:00:54;;;;;;;;;;;;;;;15.01;69.20;100736.55;107823;1285;23594;-65
2023/04/16 04:03:21;;;;;;;;;;;;;;;15.16;70.17;100736.17;107806;1290;21969;-65
2023/04/16 04:05:46;;;;;;;;;;;;;;;15.29;70.29;100733.02;107876;1290;21989;-65
2023/04/16 04:08:12;;;;;;;;;;;;;;;15.43;70.32;100737.60;107745;1290;21970;-65
2023/04/16 04:10:37;;;;;;;;;;;;;;;15.48;70.59;100739.06;107781;1283;21978;-67
2023/04/16 04:13:04;;;;;;;;;;;;;;;15.54;70.98;100745.27;107810;1290;21974;-65
2023/04/16 04:15:29;;;;;;;;;;;;;;;15.60;71.46;100749.70;107905;1290;21977;-65
2023/04/16 04:17:55;;;;;;;;;;;;;;;15.67;72.21;100751.64;107809;1290;21979;-66
2023/04/16 04:20:21;;;;;;;;;;;;;;;15.73;72.21;100753.95;107867;1290;21964;-66
2023/04/16 04:22:47;;;;;;;;;;;;;;;15.80;72.46;100754.80;107800;1290;21990;-65
2023/04/16 04:25:12;;;;;;;;;;;;;;;15.89;72.78;100753.34;107881;1290;22029;-65
2023/04/16 04:27:39;;;;;;;;;;;;;;;15.96;73.85;100751.38;107911;1290;21994;-67
2023/04/16 04:30:05;;;;;;;;;;;;;;;16.03;73.80;100752.96;107883;1290;21975;-67
2023/04/16 04:32:31;;;;;;;;;;;;;;;16.10;73.93;100753.84;107906;1290;21997;-66
2023/04/16 04:34:56;;;;;;;;;;;;;;;16.14;74.61;100750.70;107856;1290;22001;-66
2023/04/16 04:37:24;;;;;;;;;;;;;;;16.20;74.35;100748.20;107927;1290;21979;-66
2023/04/16 04:39:50;;;;;;;;;;;;;;;16.25;74.30;100747.36;107838;1290;22444;-65
2023/04/16 04:42:16;;;;;;;;;;;;;;;16.27;75.10;100748.00;107849;1290;21973;-65
2023/04/16 04:44:43;;;;;;;;;;;;;;;16.30;76.10;100749.70;107884;1290;21968;-65
2023/04/16 04:47:08;;;;;;;;;;;;;;;16.35;75.40;100749.73;107893;1290;21978;-67
2023/04/16 04:49:34;;;;;;;;;;;;;;;16.40;75.68;100747.25;107860;1290;21981;-65
2023/04/16 04:52:00;;;;;;;;;;;;;;;16.44;75.23;100745.34;107834;1290;22008;-66
2023/04/16 04:54:27;;;;;;;;;;;;;;;16.47;75.96;100748.63;107843;1290;21976;-66
2023/04/16 04:56:52;;;;;;;;;;;;;;;16.50;76.76;100755.45;107914;1290;21971;-66
2023/04/16 04:59:19;;;;;;;;;;;;;;;16.55;76.19;100759.02;107844;1290;21946;-65
2023/04/16 05:01:44;;;;;;;;;;;;;;;16.59;76.63;100762.97;107883;1290;22440;-67
2023/04/16 05:04:10;;;;;;;;;;;;;;;16.62;77.65;100760.77;107846;1290;21970;-65
2023/04/16 05:06:36;;;;;;;;;;;;;;;16.65;76.58;100760.85;107822;1290;21973;-64
2023/04/16 05:09:02;;;;;;;;;;;;;;;16.68;76.40;100764.13;107846;1290;21981;-67
2023/04/16 05:11:28;;;;;;;;;;;;;;;16.68;77.84;100768.54;107826;1290;21982;-64
2023/04/16 05:13:54;;;;;;;;;;;;;;;16.70;77.45;100769.89;107875;1290;21974;-66
2023/04/16 05:16:20;;;;;;;;;;;;;;;16.74;77.50;100773.34;107857;1290;21975;-64
2023/04/16 05:18:45;;;;;;;;;;;;;;;16.79;77.42;100768.73;107837;1290;21980;-66
2023/04/16 05:21:10;;;;;;;;;;;;;;;16.86;78.38;100768.69;107863;1290;22007;-65
2023/04/16 05:23:36;;;;;;;;;;;;;;;16.93;77.82;100771.48;107855;1290;22004;-66
2023/04/16 05:26:02;;;;;;;;;;;;;;;16.95;78.40;100769.83;107855;1285;21971;-65
2023/04/16 05:28:27;;;;;;;;;;;;;;;16.98;77.85;100774.35;107845;1290;21973;-64
2023/04/16 05:30:53;;;;;;;;;;;;;;;17.01;78.69;100777.27;107829;1290;21973;-66
2023/04/16 05:33:26;;;;;;;;;;;;;;;17.00;78.76;100780.69;107843;1289;21980;-67
2023/04/16 05:35:51;;;;;;;;;;;;;;;16.99;79.30;100780.01;107866;1290;22009;-66
2023/04/16 05:38:17;;;;;;;;;;;;;;;17.01;78.05;100780.09;107916;1290;21973;-67
2023/04/16 05:40:43;;;;;;;;;;;;;;;17.04;77.88;100784.08;107879;1290;22011;-64
2023/04/16 05:43:08;;;;;;;;;;;;;;;17.03;78.88;100787.64;107844;1290;22008;-66
2023/04/16 05:45:39;;;;;;;;;;;;;;;17.02;78.96;100791.42;107849;1290;21985;-67
2023/04/16 05:48:08;;;;;;;;;;;;;;;16.99;78.24;100785.14;107861;1290;21970;-64
2023/04/16 05:50:34;;;;;;;;;;;;;;;16.99;78.17;100782.48;107851;1284;21974;-65
2023/04/16 05:52:59;;;;;;;;;;;;;;;17.04;77.63;100786.92;107846;1290;21978;-67
2023/04/16 05:55:25;;;;;;;;;;;;;;;17.10;77.92;100785.67;107869;1285;21976;-64
2023/04/16 05:57:51;;;;;;;;;;;;;;;17.16;77.59;100782.98;107854;1290;21974;-66
2023/04/16 06:00:17;;;;;;;;;;;;;;;17.20;77.43;100791.38;107835;1290;21972;-64
2023/04/16 06:02:42;;;;;;;;;;;;;;;17.21;77.39;100792.59;107869;1290;21983;-64
2023/04/16 06:05:10;;;;;;;;;;;;;;;17.22;77.95;100794.50;107845;1290;21967;-67
2023/04/16 06:07:36;;;;;;;;;;;;;;;17.21;78.19;100800.55;107851;1290;21988;-66
2023/04/16 06:10:01;;;;;;;;;;;;;;;17.18;78.41;100807.38;107840;1290;21990;-64
2023/04/16 06:12:27;;;;;;;;;;;;;;;17.10;79.75;100811.89;107854;1290;21976;-67
2023/04/16 06:14:53;;;;;;;;;;;;;;;17.01;80.13;100815.02;107850;1290;22011;-64
2023/04/16 06:17:18;;;;;;;;;;;;;;;16.97;79.98;100815.50;107839;1290;22011;-64
2023/04/16 06:19:45;;;;;;;;;;;;;;;16.96;80.31;100816.77;107894;1290;23637;-66
2023/04/16 06:22:12;;;;;;;;;;;;;;;16.99;80.82;100820.59;107873;1290;21970;-66
2023/04/16 06:24:38;;;;;;;;;;;;;;;16.98;81.34;100819.92;107858;1290;22068;-64
2023/04/16 06:27:03;;;;;;;;;;;;;;;16.99;80.65;100824.13;107997;1290;22067;-66
2023/04/16 06:29:30;;;;;;;;;;;;;;;17.01;79.75;100824.08;107882;1290;21976;-64
2023/04/16 06:31:55;;;;;;;;;;;;;;;17.03;79.81;100825.41;107832;1290;21971;-65
2023/04/16 06:34:21;;;;;;;;;;;;;;;17.06;80.43;100828.88;107909;1285;21976;-67
2023/04/16 06:36:46;;;;;;;;;;;;;;;17.07;79.50;100830.61;107893;1290;21978;-67
2023/04/16 06:39:12;;;;;;;;;;;;;;;17.10;79.06;100825.39;107846;1290;21976;-65
2023/04/16 06:41:39;;;;;;;;;;;;;;;17.15;79.32;100834.79;107850;1290;21969;-64
2023/04/16 06:44:04;;;;;;;;;;;;;;;17.19;79.76;100845.30;107895;1290;21974;-65
2023/04/16 06:46:30;;;;;;;;;;;;;;;17.18;79.80;100850.30;107866;1290;22024;-64
2023/04/16 06:48:56;;;;;;;;;;;;;;;17.17;79.53;100854.78;107848;1290;23055;-64
2023/04/16 06:51:25;;;;;;;;;;;;;;;17.13;79.32;100858.45;107846;1290;21938;-64
2023/04/16 06:53:51;;;;;;;;;;;;;;;17.10;79.54;100862.61;107871;1290;21981;-66
2023/04/16 06:56:16;;;;;;;;;;;;;;;17.09;79.08;100860.50;107818;1290;21965;-64
2023/04/16 06:58:44;;;;;;;;;;;;;;;17.07;79.39;100855.24;107868;1290;22014;-66
2023/04/16 07:01:09;;;;;;;;;;;;;;;17.08;78.56;100849.73;107852;1290;22017;-66
2023/04/16 07:03:35;;;;;;;;;;;;;;;17.12;78.53;100841.80;107878;1290;21973;-66
2023/04/16 07:06:01;;;;;;;;;;;;;;;17.16;78.55;100836.52;107897;1290;21970;-65
2023/04/16 07:08:27;;;;;;;;;;;;;;;17.19;78.28;100823.11;107912;1290;21966;-66
2023/04/16 07:10:53;;;;;;;;;;;;;;;17.23;78.26;100815.38;107907;1290;21979;-64
2023/04/16 07:13:18;;;;;;;;;;;;;;;17.29;78.48;100805.77;107834;1290;21979;-64
2023/04/16 07:15:44;;;;;;;;;;;;;;;17.35;78.23;100813.20;107850;1290;21981;-66
2023/04/16 07:18:10;;;;;;;;;;;;;;;17.41;78.37;100816.56;107852;1290;21950;-64
2023/04/16 07:20:37;;;;;;;;;;;;;;;17.46;78.40;100819.93;107834;1290;21972;-64
2023/04/16 07:23:02;;;;;;;;;;;;;;;17.51;78.15;100815.15;107883;1290;22010;-66
2023/04/16 07:25:28;;;;;;;;;;;;;;;17.57;78.03;100810.52;107897;1290;21984;-66
2023/04/16 07:27:54;;;;;;;;;;;;;;;17.62;77.77;100803.61;107902;1290;21961;-64
2023/04/16 07:30:19;;;;;;;;;;;;;;;17.64;77.43;100800.17;107868;1286;21970;-65
2023/04/16 07:32:46;;;;;;;;;;;;;;;17.66;77.40;100803.80;107872;1290;21981;-63
2023/04/16 07:35:12;;;;;;;;;;;;;;;17.68;77.30;100811.52;107837;1290;21971;-66
2023/04/16 07:37:38;;;;;;;;;;;;;;;17.68;77.00;100823.79;107859;1290;21978;-66
2023/04/16 07:40:03;;;;;;;;;;;;;;;17.66;76.91;100849.23;107900;1290;21972;-66
2023/04/16 07:42:29;;;;;;;;;;;;;;;17.63;76.82;100862.84;107846;1289;21972;-66
2023/04/16 07:44:55;;;;;;;;;;;;;;;17.60;76.93;100864.55;107889;1290;21993;-67
2023/04/16 07:47:21;;;;;;;;;;;;;;;17.52;77.32;100867.98;107859;1290;21990;-67
2023/04/16 07:49:48;;;;;;;;;;;;;;;17.46;77.44;100866.08;107895;1290;21976;-67
2023/04/16 07:52:16;;;;;;;;;;;;;;;17.39;78.08;100868.95;107857;1289;21983;-68
2023/04/16 07:54:42;;;;;;;;;;;;;;;17.32;78.18;100873.61;107814;1290;21974;-67
2023/04/16 07:57:08;;;;;;;;;;;;;;;17.28;78.05;100876.23;107841;1290;21976;-68
2023/04/16 07:59:33;;;;;;;;;;;;;;;17.24;78.48;100873.87;107823;1290;21985;-68
2023/04/16 08:01:59;;;;;;;;;;;;;;;17.22;78.59;100872.66;107843;1286;21985;-66
2023/04/16 08:04:28;;;;;;;;;;;;;;;17.26;78.40;100872.20;107841;1290;21980;-68
2023/04/16 08:06:54;;;;;;;;;;;;;;;17.29;79.76;100870.70;107873;1290;21970;-66
2023/04/16 08:09:21;;;;;;;;;;;;;;;17.32;79.67;100872.55;107854;1290;21972;-66
2023/04/16 08:11:48;;;;;;;;;;;;;;;17.34;80.65;100877.79;107902;1290;21971;-68
2023/04/16 08:14:15;;;;;;;;;;;;;;;17.32;80.77;100882.48;107890;1290;21975;-66
2023/04/16 08:16:40;;;;;;;;;;;;;;;17.33;80.26;100884.59;107859;1290;21996;-68
2023/04/16 08:19:06;;;;;;;;;;;;;;;17.33;79.97;100886.86;107848;1290;21978;-68
2023/04/16 08:21:32;;;;;;;;;;;;;;;17.37;80.48;100883.57;107820;1290;21978;-68
2023/04/16 08:23:57;;;;;;;;;;;;;;;17.42;80.87;100879.50;107936;1290;21974;-69
2023/04/16 08:26:23;;;;;;;;;;;;;;;17.49;82.36;100879.23;107879;1290;21973;-69
2023/04/16 08:28:49;;;;;;;;;;;;;;;17.66;81.94;100872.15;107817;1289;23718;-67
2023/04/16 08:31:16;;;;;;;;;;;;;;;17.86;82.16;100872.33;107903;1290;21974;-67
2023/04/16 08:33:42;;;;;;;;;;;;;;;18.08;81.94;100864.15;107848;1286;21970;-68
2023/04/16 08:36:08;;;;;;;;;;;;;;;18.27;81.81;100863.63;107860;1290;21984;-66
2023/04/16 08:38:35;;;;;;;;;;;;;;;18.45;81.44;100862.46;107858;1290;22723;-68
2023/04/16 08:41:02;;;;;;;;;;;;;;;18.56;80.59;100857.21;107847;1290;21987;-67
2023/04/16 08:43:33;;;;;;;;;;;;;;;18.68;80.49;100845.24;107939;1290;23478;-67
2023/04/16 08:45:59;;;;;;;;;;;;;;;18.80;80.37;100841.20;107927;1290;21974;-68
2023/04/16 08:48:25;;;;;;;;;;;;;;;18.97;78.99;100837.01;107894;1290;21984;-65
2023/04/16 08:50:59;;;;;;;;;;;;;;;19.08;78.35;100836.95;107859;1290;21976;-67
2023/04/16 08:53:27;;;;;;;;;;;;;;;19.18;78.81;100829.94;107853;1290;23186;-66
2023/04/16 08:55:53;;;;;;;;;;;;;;;19.33;79.02;100827.91;107871;1290;23724;-66
2023/04/16 08:58:19;;;;;;;;;;;;;;;19.49;79.33;100820.64;107856;1290;21961;-65
2023/04/16 09:00:48;;;;;;;;;;;;;;;19.67;79.36;100812.77;107907;1289;21973;-66
2023/04/16 09:03:13;;;;;;;;;;;;;;;19.90;80.43;100804.84;107892;1290;22006;-67
2023/04/16 09:05:39;;;;;;;;;;;;;;;20.19;81.32;100813.37;107886;1290;21980;-64
2023/04/16 09:08:05;;;;;;;;;;;;;;;20.50;81.84;100821.55;107813;1290;23645;-66
2023/04/16 09:10:31;;;;;;;;;;;;;;;20.79;81.22;100826.65;107912;1290;21970;-66
2023/04/16 09:12:57;;;;;;;;;;;;;;;21.03;80.50;100828.37;107875;1290;23715;-65
2023/04/16 09:15:23;;;;;;;;;;;;;;;21.19;78.96;100828.80;107861;1290;22028;-65
2023/04/16 09:17:48;;;;;;;;;;;;;;;21.30;78.43;100825.97;107884;1290;21987;-65
2023/04/16 09:20:14;;;;;;;;;;;;;;;21.38;77.60;100833.21;107859;1290;21969;-65
2023/04/16 09:22:40;;;;;;;;;;;;;;;21.45;77.09;100835.02;107897;1290;21974;-66
2023/04/16 09:25:06;;;;;;;;;;;;;;;21.50;76.32;100834.98;107833;1290;23807;-65
2023/04/16 09:27:32;;;;;;;;;;;;;;;21.52;76.04;100834.11;107860;1285;22011;-65
2023/04/16 09:29:57;;;;;;;;;;;;;;;21.56;75.79;100831.95;107866;1290;21978;-64
2023/04/16 09:32:23;;;;;;;;;;;;;;;21.58;75.12;100831.14;107939;1290;23621;-64
2023/04/16 09:34:55;;;;;;;;;;;;;;;21.58;74.84;100827.42;107920;1290;22009;-65
2023/04/16 09:37:20;;;;;;;;;;;;;;;21.58;74.38;100831.18;107903;1290;22902;-65
2023/04/16 09:39:55;;;;;;;;;;;;;;;21.56;73.82;100839.13;107838;1290;21984;-65
2023/04/16 09:42:27;;;;;;;;;;;;;;;21.55;73.63;100844.88;107839;1290;22437;-65
2023/04/16 09:44:54;;;;;;;;;;;;;;;21.58;73.66;100842.42;107793;1286;21971;-65
2023/04/16 09:47:19;;;;;;;;;;;;;;;21.64;73.96;100841.75;108122;1290;24345;-65
2023/04/16 09:49:45;;;;;;;;;;;;;;;21.75;74.15;100840.51;107823;1290;22007;-65
2023/04/16 09:52:15;;;;;;;;;;;;;;;21.91;74.72;100829.47;107836;1285;21977;-64
2023/04/16 09:54:51;;;;;;;;;;;;;;;22.21;76.23;100823.05;107928;1290;22009;-65
2023/04/16 09:57:21;;;;;;;;;;;;;;;22.67;78.32;100821.14;107838;1290;22070;-66
2023/04/16 09:59:47;;;;;;;;;;;;;;;23.18;78.46;100808.96;107812;1290;21983;-65
2023/04/16 10:02:13;;;;;;;;;;;;;;;23.69;78.12;100803.65;107773;1290;21968;-65
2023/04/16 10:04:48;;;;;;;;;;;;;;;24.08;76.80;100802.90;107779;1290;21971;-65
2023/04/16 10:07:14;;;;;;;;;;;;;;;24.40;75.24;100808.78;107879;1290;21971;-64
2023/04/16 10:09:41;;;;;;;;;;;;;;;24.64;74.83;100808.31;107782;1290;21996;-65
2023/04/16 10:12:06;;;;;;;;;;;;;;;24.90;74.59;100801.86;107957;1290;21980;-65
2023/04/16 10:14:35;;;;;;;;;;;;;;;25.14;73.86;100800.43;107866;1290;22065;-65
2023/04/16 10:17:01;;;;;;;;;;;;;;;25.34;72.57;100803.76;107821;1290;21973;-65
2023/04/16 10:19:27;;;;;;;;;;;;;;;25.47;71.74;100806.69;107798;1290;21974;-65
2023/04/16 10:21:53;;;;;;;;;;;;;;;25.56;70.69;100808.58;107764;1290;22774;-65
2023/04/16 10:24:19;;;;;;;;;;;;;;;25.58;69.03;100809.88;107799;1290;21973;-66
2023/04/16 10:26:45;;;;;;;;;;;;;;;25.52;68.40;100814.95;107776;1290;22039;-65
2023/04/16 10:29:11;;;;;;;;;;;;;;;25.47;68.13;100813.90;107876;1290;21976;-67
2023/04/16 10:31:38;;;;;;;;;;;;;;;25.44;67.71;100813.73;107810;1290;21975;-66
2023/04/16 10:34:04;;;;;;;;;;;;;;;25.40;67.17;100809.45;107789;1290;23644;-63
2023/04/16 10:36:30;;;;;;;;;;;;;;;25.38;67.10;100805.42;107779;1290;23803;-65
2023/04/16 10:38:57;;;;;;;;;;;;;;;25.38;66.55;100804.73;107846;1290;21943;-65
2023/04/16 10:41:22;;;;;;;;;;;;;;;25.42;66.65;100801.64;107732;1290;181140;-65
2023/04/16 10:43:48;;;;;;;;;;;;;;;25.46;66.54;100802.82;107850;1290;21975;-65
2023/04/16 10:46:17;;;;;;;;;;;;;;;25.50;66.06;100810.08;107776;1290;22102;-65
2023/04/16 10:48:42;;;;;;;;;;;;;;;25.53;65.43;100809.89;107805;1290;21991;-65
2023/04/16 10:51:08;;;;;;;;;;;;;;;25.59;65.24;100808.43;107764;1286;22011;-65
2023/04/16 10:53:34;;;;;;;;;;;;;;;25.70;65.64;100810.55;107797;1290;21981;-64
2023/04/16 10:56:03;;;;;;;;;;;;;;;25.86;65.69;100799.48;107849;1290;23734;-65
2023/04/16 10:58:29;;;;;;;;;;;;;;;26.04;64.96;100797.53;107817;1289;22013;-66
2023/04/16 11:01:12;;;;;;;;;;;;;;;26.17;64.10;100791.39;107810;1290;21972;-64
2023/04/16 11:03:42;;;;;;;;;;;;;;;26.26;62.90;100788.59;107792;1290;21971;-66
2023/04/16 11:06:12;;;;;;;;;;;;;;;26.33;62.58;100797.14;107800;1290;21980;-66
2023/04/16 11:08:39;;;;;;;;;;;;;;;26.35;62.01;100796.61;108816;1290;21949;-64
2023/04/16 11:11:05;;;;;;;;;;;;;;;26.36;61.84;100790.27;107786;1290;23628;-63
2023/04/16 11:13:31;;;;;;;;;;;;;;;26.36;61.79;100789.89;109296;1290;22438;-64
2023/04/16 11:15:57;;;;;;;;;;;;;;;26.34;61.03;100792.23;107900;1290;21972;-64
2023/04/16 11:18:23;;;;;;;;;;;;;;;26.22;59.93;100797.03;107749;1290;22439;-64
2023/04/16 11:20:48;;;;;;;;;;;;;;;26.05;59.65;100803.05;107825;1290;21970;-64
2023/04/16 11:23:14;;;;;;;;;;;;;;;25.85;59.06;100811.98;107972;1290;23712;-64
2023/04/16 11:25:40;;;;;;;;;;;;;;;25.62;58.64;100817.66;107808;1290;21975;-64
2023/04/16 11:28:05;;;;;;;;;;;;;;;25.36;58.37;100819.41;107814;1290;22014;-64
2023/04/16 11:30:35;;;;;;;;;;;;;;;25.12;58.62;100817.08;107874;1290;21976;-64
2023/04/16 11:33:01;;;;;;;;;;;;;;;24.89;58.72;100813.73;107809;1290;22436;-64
2023/04/16 11:35:27;;;;;;;;;;;;;;;24.68;58.65;100821.88;107771;1290;23642;-63
2023/04/16 11:37:55;;;;;;;;;;;;;;;24.50;59.22;100825.20;107868;1290;21978;-64
2023/04/16 11:40:21;;;;;;;;;;;;;;;24.36;59.66;100826.25;107893;1289;21972;-64
2023/04/16 11:42:47;;;;;;;;;;;;;;;24.24;59.91;100823.41;107798;1287;21971;-64
2023/04/16 11:45:12;;;;;;;;;;;;;;;24.11;59.97;100821.89;107793;1290;21976;-64
2023/04/16 11:47:56;;;;;;;;;;;;;;;23.99;60.03;100820.11;107838;1288;21975;-64
2023/04/16 11:50:22;;;;;;;;;;;;;;;23.86;60.17;100821.42;107808;1290;21971;-64
2023/04/16 11:52:48;;;;;;;;;;;;;;;23.75;60.54;100821.36;107899;1290;21972;-63
2023/04/16 11:55:14;;;;;;;;;;;;;;;23.68;60.71;100820.16;107843;1290;21970;-63
2023/04/16 11:57:40;;;;;;;;;;;;;;;23.59;60.44;100816.57;107893;1290;21984;-63
2023/04/16 12:00:09;;;;;;;;;;;;;;;23.50;60.56;100809.77;107798;1290;21975;-63
2023/04/16 12:02:36;;;;;;;;;;;;;;;23.41;60.35;100808.33;107800;1290;21969;-64
2023/04/16 12:05:02;;;;;;;;;;;;;;;23.31;60.34;100806.95;107865;1288;21966;-63
2023/04/16 12:07:28;;;;;;;;;;;;;;;23.27;60.99;100806.27;107843;1290;22033;-64
2023/04/16 12:10:04;;;;;;;;;;;;;;;23.33;61.51;100804.34;107844;1290;22143;-64
2023/04/16 12:12:30;;;;;;;;;;;;;;;23.40;62.22;100797.29;107944;1286;21973;-65
2023/04/16 12:14:58;;;;;;;;;;;;;;;23.43;62.67;100795.86;107955;1289;23628;-65
2023/04/16 12:17:23;;;;;;;;;;;;;;;23.48;62.55;100801.31;107102;1286;1002563;-63
2023/04/16 12:19:50;;;;;;;;;;;;;;;23.54;62.17;100803.27;107894;1287;24410;-63
2023/04/16 12:22:16;;;;;;;;;;;;;;;23.54;61.81;100801.52;107908;1289;21980;-64